Pagrindinis puslapis
METAR-TAF:

METAR-TAF

Oro uostai :

Brooks County Airport

Falfurrias, Teksasas, Jungtinės Amerikos Valstijos

platuma: 27-12-24N, ilguma: 098-07-16W, Aukštis: 34 m

Dabartinis oras

Ataskaita buvo paskelbta 19 minutes, ne 21:35 UTC
Vėjas 18 kt iš Pietų su gūsio iki 23 kt
Temperatūra 33°C
Drėgmė 44%
Slėgis 1009 hPa
Matomumas: 16.1 km
Išsisklaidę debesys ne aukštis 6000 ft
Išsisklaidę debesys ne aukštis 7000 ft

METAR: KBKS 082135Z AUTO 18018G23KT 10SM SCT060 SCT070 33/19 A2979 RMK AO2 T03260187

Laikas: 16:54 (21:54 UTC)


TAF: trūkstamas

Orai ataskaitas ir orų prognozės (METAR, TAF).

turimą stotys yra geltonos ir raudonos taškus žemėlapyje.

Perkelti pele per norėdami pamatyti stoties vardą.

Tada spustelėkite, norėdami matyti oro stebėjimo ir prognozės.

Norėdami pakeisti žemėlapį: spustelėkite ant žalios mygtukų su juodo kryžiaus žemyn,; žalią mygtuką su brūkšneliu, jei norite nutolinti; arba žalių rodyklių gretimoms žemėlapius.


METAR-TAF: